sensor_id;sensor_type;location;lat;lon;timestamp;pressure;altitude;pressure_sealevel;temperature;humidity
85258;BME280;75669;48.038;10.158;2024-01-30T00:01:35;96511.78;;;4.82;90.81
85258;BME280;75669;48.038;10.158;2024-01-30T00:04:02;96520.47;;;4.53;91.95
85258;BME280;75669;48.038;10.158;2024-01-30T00:06:27;96514.25;;;4.29;93.68
85258;BME280;75669;48.038;10.158;2024-01-30T00:08:52;96524.75;;;4.49;94.19
85258;BME280;75669;48.038;10.158;2024-01-30T00:11:18;96518.41;;;4.45;92.98
85258;BME280;75669;48.038;10.158;2024-01-30T00:13:44;96519.63;;;3.02;98.41
85258;BME280;75669;48.038;10.158;2024-01-30T00:16:20;96528.59;;;4.23;99.01
85258;BME280;75669;48.038;10.158;2024-01-30T00:18:45;96520.78;;;4.42;97.40
85258;BME280;75669;48.038;10.158;2024-01-30T00:21:11;96517.97;;;4.28;96.22
85258;BME280;75669;48.038;10.158;2024-01-30T00:23:36;96517.25;;;4.12;96.46
85258;BME280;75669;48.038;10.158;2024-01-30T00:26:01;96525.03;;;4.37;96.17
85258;BME280;75669;48.038;10.158;2024-01-30T00:28:27;96520.56;;;4.33;94.61
85258;BME280;75669;48.038;10.158;2024-01-30T00:30:52;96523.97;;;4.44;95.57
85258;BME280;75669;48.038;10.158;2024-01-30T00:33:18;96531.63;;;3.95;97.07
85258;BME280;75669;48.038;10.158;2024-01-30T00:35:43;96523.06;;;4.14;97.32
85258;BME280;75669;48.038;10.158;2024-01-30T00:38:08;96516.16;;;4.13;97.33
85258;BME280;75669;48.038;10.158;2024-01-30T00:40:34;96524.22;;;3.87;100.00
85258;BME280;75669;48.038;10.158;2024-01-30T00:42:59;96518.56;;;4.14;100.00
85258;BME280;75669;48.038;10.158;2024-01-30T00:45:25;96526.91;;;4.42;97.37
85258;BME280;75669;48.038;10.158;2024-01-30T00:47:50;96535.75;;;2.96;100.00
85258;BME280;75669;48.038;10.158;2024-01-30T00:50:16;96530.22;;;2.82;100.00
85258;BME280;75669;48.038;10.158;2024-01-30T00:52:41;96527.16;;;4.41;100.00
85258;BME280;75669;48.038;10.158;2024-01-30T00:55:07;96527.22;;;4.35;98.54
85258;BME280;75669;48.038;10.158;2024-01-30T00:57:32;96527.81;;;3.16;100.00
85258;BME280;75669;48.038;10.158;2024-01-30T01:00:34;96535.47;;;2.72;100.00
85258;BME280;75669;48.038;10.158;2024-01-30T01:02:59;96530.97;;;2.72;100.00
85258;BME280;75669;48.038;10.158;2024-01-30T01:05:25;96525.44;;;2.63;100.00
85258;BME280;75669;48.038;10.158;2024-01-30T01:07:50;96537.09;;;2.98;100.00
85258;BME280;75669;48.038;10.158;2024-01-30T01:10:16;96536.28;;;3.03;100.00
85258;BME280;75669;48.038;10.158;2024-01-30T01:12:42;96535.50;;;2.92;100.00
85258;BME280;75669;48.038;10.158;2024-01-30T01:15:08;96537.59;;;2.90;100.00
85258;BME280;75669;48.038;10.158;2024-01-30T01:17:37;96545.53;;;3.00;100.00
85258;BME280;75669;48.038;10.158;2024-01-30T01:20:04;96543.44;;;2.97;100.00
85258;BME280;75669;48.038;10.158;2024-01-30T01:22:33;96545.81;;;3.09;100.00
85258;BME280;75669;48.038;10.158;2024-01-30T01:24:59;96535.50;;;2.97;100.00
85258;BME280;75669;48.038;10.158;2024-01-30T01:27:25;96539.72;;;2.98;100.00
85258;BME280;75669;48.038;10.158;2024-01-30T01:29:51;96548.72;;;2.87;100.00
85258;BME280;75669;48.038;10.158;2024-01-30T01:32:16;96553.44;;;2.64;100.00
85258;BME280;75669;48.038;10.158;2024-01-30T01:34:42;96540.78;;;2.66;100.00
85258;BME280;75669;48.038;10.158;2024-01-30T01:37:07;96552.38;;;2.65;100.00
85258;BME280;75669;48.038;10.158;2024-01-30T01:39:33;96541.31;;;2.94;100.00
85258;BME280;75669;48.038;10.158;2024-01-30T01:41:58;96540.75;;;3.28;100.00
85258;BME280;75669;48.038;10.158;2024-01-30T01:44:24;96546.31;;;3.37;100.00
85258;BME280;75669;48.038;10.158;2024-01-30T01:46:49;96548.72;;;3.23;100.00
85258;BME280;75669;48.038;10.158;2024-01-30T01:49:15;96539.22;;;2.91;100.00
85258;BME280;75669;48.038;10.158;2024-01-30T01:51:41;96546.34;;;2.80;100.00
85258;BME280;75669;48.038;10.158;2024-01-30T01:54:07;96545.81;;;2.94;100.00
85258;BME280;75669;48.038;10.158;2024-01-30T01:56:34;96539.72;;;2.83;100.00
85258;BME280;75669;48.038;10.158;2024-01-30T01:59:05;96542.91;;;2.95;100.00
85258;BME280;75669;48.038;10.158;2024-01-30T02:01:33;96539.47;;;3.15;100.00
85258;BME280;75669;48.038;10.158;2024-01-30T02:03:59;96543.44;;;3.02;100.00
85258;BME280;75669;48.038;10.158;2024-01-30T02:06:26;96534.44;;;3.03;100.00
85258;BME280;75669;48.038;10.158;2024-01-30T02:08:51;96544.22;;;3.08;100.00
85258;BME280;75669;48.038;10.158;2024-01-30T02:11:16;96542.13;;;3.15;100.00
85258;BME280;75669;48.038;10.158;2024-01-30T02:13:43;96535.75;;;3.26;100.00
85258;BME280;75669;48.038;10.158;2024-01-30T02:16:08;96537.06;;;3.19;100.00
85258;BME280;75669;48.038;10.158;2024-01-30T02:18:33;96540.78;;;2.92;100.00
85258;BME280;75669;48.038;10.158;2024-01-30T02:21:04;96538.94;;;2.77;100.00
85258;BME280;75669;48.038;10.158;2024-01-30T02:23:30;96536.75;;;3.61;100.00
85258;BME280;75669;48.038;10.158;2024-01-30T02:25:55;96534.44;;;3.29;100.00
85258;BME280;75669;48.038;10.158;2024-01-30T02:28:21;96544.75;;;3.25;100.00
85258;BME280;75669;48.038;10.158;2024-01-30T02:30:46;96530.72;;;3.25;100.00
85258;BME280;75669;48.038;10.158;2024-01-30T02:33:12;96530.91;;;3.69;100.00
85258;BME280;75669;48.038;10.158;2024-01-30T02:35:38;96534.78;;;3.98;100.00
85258;BME280;75669;48.038;10.158;2024-01-30T02:38:03;96533.56;;;3.69;98.88
85258;BME280;75669;48.038;10.158;2024-01-30T02:40:29;96535.91;;;3.76;99.32
85258;BME280;75669;48.038;10.158;2024-01-30T02:42:54;96528.25;;;3.69;99.70
85258;BME280;75669;48.038;10.158;2024-01-30T02:45:20;96523.81;;;3.49;100.00
85258;BME280;75669;48.038;10.158;2024-01-30T02:47:45;96525.72;;;3.28;100.00
85258;BME280;75669;48.038;10.158;2024-01-30T02:50:11;96522.56;;;3.06;100.00
85258;BME280;75669;48.038;10.158;2024-01-30T02:52:36;96523.34;;;3.06;100.00
85258;BME280;75669;48.038;10.158;2024-01-30T02:55:02;96517.53;;;2.99;100.00
85258;BME280;75669;48.038;10.158;2024-01-30T02:57:28;96523.59;;;2.89;100.00
85258;BME280;75669;48.038;10.158;2024-01-30T02:59:53;96514.34;;;3.07;100.00
85258;BME280;75669;48.038;10.158;2024-01-30T03:02:19;96526.25;;;3.05;100.00
85258;BME280;75669;48.038;10.158;2024-01-30T03:04:45;96516.72;;;2.94;100.00
85258;BME280;75669;48.038;10.158;2024-01-30T03:07:10;96509.56;;;3.15;100.00
85258;BME280;75669;48.038;10.158;2024-01-30T03:09:36;96522.00;;;2.53;100.00
85258;BME280;75669;48.038;10.158;2024-01-30T03:12:03;96520.84;;;2.18;100.00
85258;BME280;75669;48.038;10.158;2024-01-30T03:14:30;96517.97;;;2.29;100.00
85258;BME280;75669;48.038;10.158;2024-01-30T03:16:55;96518.50;;;2.26;100.00
85258;BME280;75669;48.038;10.158;2024-01-30T03:19:21;96521.88;;;2.01;100.00
85258;BME280;75669;48.038;10.158;2024-01-30T03:21:46;96526.88;;;2.03;100.00
85258;BME280;75669;48.038;10.158;2024-01-30T03:24:12;96523.22;;;2.14;100.00
85258;BME280;75669;48.038;10.158;2024-01-30T03:26:37;96518.78;;;2.40;100.00
85258;BME280;75669;48.038;10.158;2024-01-30T03:29:02;96510.09;;;2.40;100.00
85258;BME280;75669;48.038;10.158;2024-01-30T03:31:28;96509.75;;;2.16;100.00
85258;BME280;75669;48.038;10.158;2024-01-30T03:33:53;96512.97;;;2.38;100.00
85258;BME280;75669;48.038;10.158;2024-01-30T03:36:18;96509.84;;;2.52;100.00
85258;BME280;75669;48.038;10.158;2024-01-30T03:38:44;96512.44;;;2.26;100.00
85258;BME280;75669;48.038;10.158;2024-01-30T03:41:09;96511.84;;;2.08;100.00
85258;BME280;75669;48.038;10.158;2024-01-30T03:43:36;96505.00;;;2.18;100.00
85258;BME280;75669;48.038;10.158;2024-01-30T03:46:02;96505.31;;;2.26;100.00
85258;BME280;75669;48.038;10.158;2024-01-30T03:48:28;96512.38;;;2.11;100.00
85258;BME280;75669;48.038;10.158;2024-01-30T03:50:54;96503.94;;;2.08;100.00
85258;BME280;75669;48.038;10.158;2024-01-30T03:53:19;96507.13;;;2.16;100.00
85258;BME280;75669;48.038;10.158;2024-01-30T03:55:45;96509.47;;;2.07;100.00
85258;BME280;75669;48.038;10.158;2024-01-30T03:58:10;96505.47;;;1.94;100.00
85258;BME280;75669;48.038;10.158;2024-01-30T04:00:35;96511.56;;;1.95;100.00
85258;BME280;75669;48.038;10.158;2024-01-30T04:03:01;96508.38;;;2.03;100.00
85258;BME280;75669;48.038;10.158;2024-01-30T04:05:26;96512.94;;;2.13;100.00
85258;BME280;75669;48.038;10.158;2024-01-30T04:07:51;96511.38;;;2.32;100.00
85258;BME280;75669;48.038;10.158;2024-01-30T04:10:17;96501.63;;;2.33;100.00
85258;BME280;75669;48.038;10.158;2024-01-30T04:12:42;96507.69;;;2.33;100.00
85258;BME280;75669;48.038;10.158;2024-01-30T04:15:08;96508.78;;;2.58;100.00
85258;BME280;75669;48.038;10.158;2024-01-30T04:17:33;96509.31;;;2.60;100.00
85258;BME280;75669;48.038;10.158;2024-01-30T04:19:59;96508.81;;;2.73;100.00
85258;BME280;75669;48.038;10.158;2024-01-30T04:22:24;96509.31;;;2.60;100.00
85258;BME280;75669;48.038;10.158;2024-01-30T04:24:50;96509.84;;;2.72;100.00
85258;BME280;75669;48.038;10.158;2024-01-30T04:27:15;96500.34;;;2.81;100.00
85258;BME280;75669;48.038;10.158;2024-01-30T04:29:40;96503.53;;;3.04;100.00
85258;BME280;75669;48.038;10.158;2024-01-30T04:32:06;96491.31;;;3.28;100.00
85258;BME280;75669;48.038;10.158;2024-01-30T04:34:31;96494.19;;;3.47;100.00
85258;BME280;75669;48.038;10.158;2024-01-30T04:36:56;96496.25;;;3.61;100.00
85258;BME280;75669;48.038;10.158;2024-01-30T04:39:22;96490.78;;;3.42;100.00
85258;BME280;75669;48.038;10.158;2024-01-30T04:41:47;96500.78;;;3.50;100.00
85258;BME280;75669;48.038;10.158;2024-01-30T04:44:13;96505.06;;;3.30;100.00
85258;BME280;75669;48.038;10.158;2024-01-30T04:46:39;96503.22;;;3.26;100.00
85258;BME280;75669;48.038;10.158;2024-01-30T04:49:04;96500.84;;;3.19;100.00
85258;BME280;75669;48.038;10.158;2024-01-30T04:51:30;96505.09;;;3.05;100.00
85258;BME280;75669;48.038;10.158;2024-01-30T04:53:55;96508.00;;;3.03;100.00
85258;BME280;75669;48.038;10.158;2024-01-30T04:56:20;96506.13;;;3.14;100.00
85258;BME280;75669;48.038;10.158;2024-01-30T04:58:46;96502.47;;;2.84;100.00
85258;BME280;75669;48.038;10.158;2024-01-30T05:01:18;96511.72;;;3.02;100.00
85258;BME280;75669;48.038;10.158;2024-01-30T05:03:43;96510.34;;;3.25;100.00
85258;BME280;75669;48.038;10.158;2024-01-30T05:06:08;96513.00;;;3.20;100.00
85258;BME280;75669;48.038;10.158;2024-01-30T05:08:34;96511.16;;;3.05;100.00
85258;BME280;75669;48.038;10.158;2024-01-30T05:11:05;96510.91;;;2.97;100.00
85258;BME280;75669;48.038;10.158;2024-01-30T05:13:31;96512.47;;;3.33;100.00
85258;BME280;75669;48.038;10.158;2024-01-30T05:15:56;96510.09;;;3.17;100.00
85258;BME280;75669;48.038;10.158;2024-01-30T05:18:21;96513.28;;;3.14;100.00
85258;BME280;75669;48.038;10.158;2024-01-30T05:20:46;96507.47;;;3.06;100.00
85258;BME280;75669;48.038;10.158;2024-01-30T05:23:12;96526.25;;;3.00;100.00
85258;BME280;75669;48.038;10.158;2024-01-30T05:25:38;96529.16;;;3.03;100.00
85258;BME280;75669;48.038;10.158;2024-01-30T05:28:03;96530.22;;;3.07;100.00
85258;BME280;75669;48.038;10.158;2024-01-30T05:30:29;96526.50;;;3.03;100.00
85258;BME280;75669;48.038;10.158;2024-01-30T05:32:54;96526.53;;;2.93;100.00
85258;BME280;75669;48.038;10.158;2024-01-30T05:35:19;96528.09;;;2.74;100.00
85258;BME280;75669;48.038;10.158;2024-01-30T05:37:47;96528.06;;;2.53;100.00
85258;BME280;75669;48.038;10.158;2024-01-30T05:40:13;96531.22;;;2.40;100.00
85258;BME280;75669;48.038;10.158;2024-01-30T05:42:38;96534.66;;;2.45;100.00
85258;BME280;75669;48.038;10.158;2024-01-30T05:45:04;96536.78;;;2.48;100.00
85258;BME280;75669;48.038;10.158;2024-01-30T05:47:30;96533.84;;;2.45;100.00
85258;BME280;75669;48.038;10.158;2024-01-30T05:49:56;96539.09;;;2.29;100.00
85258;BME280;75669;48.038;10.158;2024-01-30T05:52:21;96544.91;;;2.26;100.00
85258;BME280;75669;48.038;10.158;2024-01-30T05:54:46;96540.69;;;2.31;100.00
85258;BME280;75669;48.038;10.158;2024-01-30T05:57:12;96542.56;;;2.45;100.00
85258;BME280;75669;48.038;10.158;2024-01-30T05:59:37;96548.38;;;2.42;100.00
85258;BME280;75669;48.038;10.158;2024-01-30T06:02:03;96544.41;;;2.45;100.00
85258;BME280;75669;48.038;10.158;2024-01-30T06:04:28;96538.66;;;2.94;100.00
85258;BME280;75669;48.038;10.158;2024-01-30T06:06:53;96537.03;;;2.47;100.00
85258;BME280;75669;48.038;10.158;2024-01-30T06:09:19;96540.22;;;2.49;100.00
85258;BME280;75669;48.038;10.158;2024-01-30T06:11:44;96535.97;;;2.33;100.00
85258;BME280;75669;48.038;10.158;2024-01-30T06:14:10;96541.25;;;2.33;100.00
85258;BME280;75669;48.038;10.158;2024-01-30T06:16:35;96544.38;;;2.29;100.00
85258;BME280;75669;48.038;10.158;2024-01-30T06:19:00;96549.16;;;2.38;100.00
85258;BME280;75669;48.038;10.158;2024-01-30T06:21:26;96552.00;;;2.16;100.00
85258;BME280;75669;48.038;10.158;2024-01-30T06:23:51;96546.78;;;2.31;100.00
85258;BME280;75669;48.038;10.158;2024-01-30T06:26:17;96542.44;;;1.99;100.00
85258;BME280;75669;48.038;10.158;2024-01-30T06:28:42;96539.28;;;2.07;100.00
85258;BME280;75669;48.038;10.158;2024-01-30T06:31:07;96538.81;;;2.21;100.00
85258;BME280;75669;48.038;10.158;2024-01-30T06:33:33;96538.84;;;2.26;100.00
85258;BME280;75669;48.038;10.158;2024-01-30T06:35:58;96544.97;;;2.42;100.00
85258;BME280;75669;48.038;10.158;2024-01-30T06:38:23;96540.47;;;2.37;100.00
85258;BME280;75669;48.038;10.158;2024-01-30T06:40:49;96534.88;;;2.34;100.00
85258;BME280;75669;48.038;10.158;2024-01-30T06:43:14;96530.09;;;2.20;100.00
85258;BME280;75669;48.038;10.158;2024-01-30T06:45:40;96543.38;;;2.46;100.00
85258;BME280;75669;48.038;10.158;2024-01-30T06:48:05;96539.47;;;3.20;100.00
85258;BME280;75669;48.038;10.158;2024-01-30T06:50:31;96546.34;;;2.80;100.00
85258;BME280;75669;48.038;10.158;2024-01-30T06:52:56;96552.38;;;2.55;100.00
85258;BME280;75669;48.038;10.158;2024-01-30T06:55:22;96551.75;;;2.27;100.00
85258;BME280;75669;48.038;10.158;2024-01-30T06:57:47;96551.06;;;2.58;100.00
85258;BME280;75669;48.038;10.158;2024-01-30T07:00:13;96545.22;;;2.45;100.00
85258;BME280;75669;48.038;10.158;2024-01-30T07:02:39;96546.06;;;2.66;100.00
85258;BME280;75669;48.038;10.158;2024-01-30T07:05:04;96545.53;;;2.80;100.00
85258;BME280;75669;48.038;10.158;2024-01-30T07:07:30;96551.63;;;2.80;100.00
85258;BME280;75669;48.038;10.158;2024-01-30T07:09:55;96547.66;;;2.88;100.00
85258;BME280;75669;48.038;10.158;2024-01-30T07:12:23;96552.69;;;3.00;100.00
85258;BME280;75669;48.038;10.158;2024-01-30T07:14:50;96556.94;;;3.06;100.00
85258;BME280;75669;48.038;10.158;2024-01-30T07:17:16;96553.72;;;3.29;100.00
85258;BME280;75669;48.038;10.158;2024-01-30T07:19:41;96550.81;;;3.31;100.00
85258;BME280;75669;48.038;10.158;2024-01-30T07:22:07;96551.34;;;3.23;100.00
85258;BME280;75669;48.038;10.158;2024-01-30T07:24:33;96557.72;;;3.27;100.00
85258;BME280;75669;48.038;10.158;2024-01-30T07:26:58;96560.06;;;3.23;100.00
85258;BME280;75669;48.038;10.158;2024-01-30T07:29:23;96556.66;;;3.33;100.00
85258;BME280;75669;48.038;10.158;2024-01-30T07:31:49;96565.09;;;3.40;100.00
85258;BME280;75669;48.038;10.158;2024-01-30T07:34:14;96566.13;;;3.54;100.00
85258;BME280;75669;48.038;10.158;2024-01-30T07:36:40;96571.34;;;3.85;100.00
85258;BME280;75669;48.038;10.158;2024-01-30T07:39:05;96568.22;;;3.73;100.00
85258;BME280;75669;48.038;10.158;2024-01-30T07:41:30;96573.94;;;4.11;100.00
85258;BME280;75669;48.038;10.158;2024-01-30T07:43:56;96578.03;;;4.37;98.04
85258;BME280;75669;48.038;10.158;2024-01-30T07:46:22;96571.88;;;4.52;97.68
85258;BME280;75669;48.038;10.158;2024-01-30T07:48:47;96579.22;;;4.66;95.39
85258;BME280;75669;48.038;10.158;2024-01-30T07:51:12;96587.63;;;4.33;96.11
85258;BME280;75669;48.038;10.158;2024-01-30T07:53:38;96578.34;;;4.81;94.89
85258;BME280;75669;48.038;10.158;2024-01-30T07:56:03;96577.88;;;4.73;95.01
85258;BME280;75669;48.038;10.158;2024-01-30T07:58:29;96580.19;;;4.85;93.31
85258;BME280;75669;48.038;10.158;2024-01-30T08:00:54;96587.53;;;4.54;93.69
85258;BME280;75669;48.038;10.158;2024-01-30T08:03:22;96588.28;;;4.60;95.26
85258;BME280;75669;48.038;10.158;2024-01-30T08:05:47;96595.69;;;4.63;96.39
85258;BME280;75669;48.038;10.158;2024-01-30T08:08:12;96588.13;;;4.85;96.37
85258;BME280;75669;48.038;10.158;2024-01-30T08:10:38;96599.06;;;5.13;95.68
85258;BME280;75669;48.038;10.158;2024-01-30T08:13:03;96586.47;;;4.94;96.21
85258;BME280;75669;48.038;10.158;2024-01-30T08:15:28;96587.06;;;4.86;96.44
85258;BME280;75669;48.038;10.158;2024-01-30T08:17:54;96592.16;;;5.17;96.76
85258;BME280;75669;48.038;10.158;2024-01-30T08:20:23;96582.44;;;5.36;96.27
85258;BME280;75669;48.038;10.158;2024-01-30T08:22:49;96585.84;;;5.42;94.69
85258;BME280;75669;48.038;10.158;2024-01-30T08:25:14;96585.06;;;5.41;94.63
85258;BME280;75669;48.038;10.158;2024-01-30T08:27:39;96584.34;;;5.60;93.87
85258;BME280;75669;48.038;10.158;2024-01-30T08:30:08;96585.00;;;5.76;92.74
85258;BME280;75669;48.038;10.158;2024-01-30T08:32:34;96571.41;;;6.07;90.26
85258;BME280;75669;48.038;10.158;2024-01-30T08:34:59;96583.25;;;6.38;88.44
85258;BME280;75669;48.038;10.158;2024-01-30T08:37:29;96575.75;;;6.64;87.25
85258;BME280;75669;48.038;10.158;2024-01-30T08:39:54;96571.38;;;6.55;87.20
85258;BME280;75669;48.038;10.158;2024-01-30T08:42:20;96572.09;;;6.79;86.05
85258;BME280;75669;48.038;10.158;2024-01-30T08:44:48;96570.00;;;6.76;85.54
85258;BME280;75669;48.038;10.158;2024-01-30T08:47:14;96574.25;;;6.77;84.46
85258;BME280;75669;48.038;10.158;2024-01-30T08:49:41;96578.56;;;6.92;84.13
85258;BME280;75669;48.038;10.158;2024-01-30T08:52:09;96570.16;;;7.04;82.88
85258;BME280;75669;48.038;10.158;2024-01-30T08:54:34;96562.53;;;6.97;82.30
85258;BME280;75669;48.038;10.158;2024-01-30T08:57:00;96554.56;;;7.30;81.07
85258;BME280;75669;48.038;10.158;2024-01-30T08:59:25;96561.88;;;7.38;80.09
85258;BME280;75669;48.038;10.158;2024-01-30T09:01:51;96560.38;;;7.79;79.79
85258;BME280;75669;48.038;10.158;2024-01-30T09:04:19;96567.47;;;7.69;79.07
85258;BME280;75669;48.038;10.158;2024-01-30T09:06:45;96571.56;;;8.08;78.55
85258;BME280;75669;48.038;10.158;2024-01-30T09:09:10;96569.19;;;8.48;78.02
85258;BME280;75669;48.038;10.158;2024-01-30T09:11:35;96577.97;;;8.49;76.71
85258;BME280;75669;48.038;10.158;2024-01-30T09:14:01;96569.66;;;8.64;76.89
85258;BME280;75669;48.038;10.158;2024-01-30T09:16:26;96566.31;;;8.45;76.08
85258;BME280;75669;48.038;10.158;2024-01-30T09:18:52;96566.28;;;8.95;75.77
85258;BME280;75669;48.038;10.158;2024-01-30T09:21:17;96570.00;;;9.30;74.90
85258;BME280;75669;48.038;10.158;2024-01-30T09:23:42;96561.03;;;9.49;74.00
85258;BME280;75669;48.038;10.158;2024-01-30T09:26:08;96562.22;;;9.65;73.81
85258;BME280;75669;48.038;10.158;2024-01-30T09:28:34;96566.50;;;9.75;72.83
85258;BME280;75669;48.038;10.158;2024-01-30T09:30:59;96562.63;;;9.90;72.30
85258;BME280;75669;48.038;10.158;2024-01-30T09:33:25;96560.03;;;10.07;72.98
85258;BME280;75669;48.038;10.158;2024-01-30T09:35:50;96565.91;;;10.18;72.39
85258;BME280;75669;48.038;10.158;2024-01-30T09:38:16;96571.72;;;10.86;72.07
85258;BME280;75669;48.038;10.158;2024-01-30T09:40:41;96568.88;;;10.65;73.08
85258;BME280;75669;48.038;10.158;2024-01-30T09:43:07;96564.56;;;10.07;73.62
85258;BME280;75669;48.038;10.158;2024-01-30T09:45:33;96560.66;;;10.13;74.24
85258;BME280;75669;48.038;10.158;2024-01-30T09:48:00;96564.91;;;10.05;73.29
85258;BME280;75669;48.038;10.158;2024-01-30T09:50:26;96570.78;;;10.25;71.99
85258;BME280;75669;48.038;10.158;2024-01-30T09:52:53;96570.31;;;10.23;70.91
85258;BME280;75669;48.038;10.158;2024-01-30T09:55:20;96574.22;;;10.65;69.34
85258;BME280;75669;48.038;10.158;2024-01-30T09:57:45;96583.28;;;10.47;68.23
85258;BME280;75669;48.038;10.158;2024-01-30T10:00:12;96574.22;;;10.56;68.73
85258;BME280;75669;48.038;10.158;2024-01-30T10:02:38;96572.34;;;11.09;67.97
85258;BME280;75669;48.038;10.158;2024-01-30T10:05:04;96570.44;;;10.75;68.49
85258;BME280;75669;48.038;10.158;2024-01-30T10:07:30;96578.63;;;10.87;67.26
85258;BME280;75669;48.038;10.158;2024-01-30T10:09:56;96567.94;;;10.78;67.89
85258;BME280;75669;48.038;10.158;2024-01-30T10:12:22;96574.41;;;10.95;67.22
85258;BME280;75669;48.038;10.158;2024-01-30T10:14:47;96570.47;;;10.92;66.71
85258;BME280;75669;48.038;10.158;2024-01-30T10:17:13;96570.91;;;11.47;66.29
85258;BME280;75669;48.038;10.158;2024-01-30T10:19:40;96572.13;;;11.67;65.86
85258;BME280;75669;48.038;10.158;2024-01-30T10:22:05;96564.75;;;11.55;65.75
85258;BME280;75669;48.038;10.158;2024-01-30T10:24:33;96562.72;;;11.34;66.21
85258;BME280;75669;48.038;10.158;2024-01-30T10:26:58;96554.81;;;11.47;66.43
85258;BME280;75669;48.038;10.158;2024-01-30T10:29:24;96559.75;;;11.92;65.86
85258;BME280;75669;48.038;10.158;2024-01-30T10:32:02;96554.28;;;11.71;66.72
85258;BME280;75669;48.038;10.158;2024-01-30T10:34:28;96558.06;;;11.70;67.21
85258;BME280;75669;48.038;10.158;2024-01-30T10:39:31;96550.97;;;11.65;67.22
85258;BME280;75669;48.038;10.158;2024-01-30T10:42:04;96552.06;;;11.90;66.85
85258;BME280;75669;48.038;10.158;2024-01-30T10:44:37;96552.53;;;11.92;65.94
85258;BME280;75669;48.038;10.158;2024-01-30T10:47:07;96542.81;;;12.09;65.20
85258;BME280;75669;48.038;10.158;2024-01-30T10:49:36;96548.78;;;12.14;65.34
85258;BME280;75669;48.038;10.158;2024-01-30T10:52:03;96542.41;;;11.89;65.93
85258;BME280;75669;48.038;10.158;2024-01-30T10:54:31;96540.84;;;11.79;66.55
85258;BME280;75669;48.038;10.158;2024-01-30T10:57:00;96537.97;;;12.02;66.19
85258;BME280;75669;48.038;10.158;2024-01-30T10:59:30;96545.53;;;12.00;65.15
85258;BME280;75669;48.038;10.158;2024-01-30T11:01:58;96543.00;;;12.03;65.09
85258;BME280;75669;48.038;10.158;2024-01-30T11:04:24;96543.56;;;12.18;65.05
85258;BME280;75669;48.038;10.158;2024-01-30T11:06:50;96540.63;;;12.82;63.69
85258;BME280;75669;48.038;10.158;2024-01-30T11:09:17;96536.88;;;13.17;62.35
85258;BME280;75669;48.038;10.158;2024-01-30T11:11:56;96535.19;;;13.33;62.71
85258;BME280;75669;48.038;10.158;2024-01-30T11:14:29;96530.31;;;13.26;62.43
85258;BME280;75669;48.038;10.158;2024-01-30T11:16:58;96540.75;;;13.61;62.04
85258;BME280;75669;48.038;10.158;2024-01-30T11:19:25;96535.16;;;13.66;62.64
85258;BME280;75669;48.038;10.158;2024-01-30T11:21:54;96549.88;;;12.94;64.76
85258;BME280;75669;48.038;10.158;2024-01-30T11:24:21;96545.28;;;12.73;65.74
85258;BME280;75669;48.038;10.158;2024-01-30T11:26:55;96537.19;;;12.82;66.00
85258;BME280;75669;48.038;10.158;2024-01-30T11:29:27;96534.16;;;12.62;66.58
85258;BME280;75669;48.038;10.158;2024-01-30T11:31:57;96534.16;;;13.04;65.72
85258;BME280;75669;48.038;10.158;2024-01-30T11:34:23;96529.56;;;13.05;66.01
85258;BME280;75669;48.038;10.158;2024-01-30T11:36:52;96533.19;;;13.21;65.46
85258;BME280;75669;48.038;10.158;2024-01-30T11:39:20;96521.94;;;13.86;64.17
85258;BME280;75669;48.038;10.158;2024-01-30T11:41:48;96520.13;;;13.53;63.41
85258;BME280;75669;48.038;10.158;2024-01-30T11:44:15;96521.69;;;13.00;63.82
85258;BME280;75669;48.038;10.158;2024-01-30T11:46:41;96515.91;;;13.10;64.24
85258;BME280;75669;48.038;10.158;2024-01-30T11:49:06;96513.44;;;13.05;64.02
85258;BME280;75669;48.038;10.158;2024-01-30T11:51:32;96519.94;;;13.04;64.29
85258;BME280;75669;48.038;10.158;2024-01-30T11:53:57;96516.03;;;13.14;63.80
85258;BME280;75669;48.038;10.158;2024-01-30T11:56:24;96513.94;;;13.40;61.56
85258;BME280;75669;48.038;10.158;2024-01-30T11:58:50;96498.31;;;13.91;61.44
85258;BME280;75669;48.038;10.158;2024-01-30T12:01:17;96504.38;;;14.01;61.35
85258;BME280;75669;48.038;10.158;2024-01-30T12:03:43;96494.47;;;13.56;63.15
85258;BME280;75669;48.038;10.158;2024-01-30T12:06:15;96493.25;;;13.65;62.19
85258;BME280;75669;48.038;10.158;2024-01-30T12:08:41;96492.44;;;13.53;63.50
85258;BME280;75669;48.038;10.158;2024-01-30T12:11:06;96492.34;;;13.49;62.33
85258;BME280;75669;48.038;10.158;2024-01-30T12:13:32;96498.03;;;13.47;61.83
85258;BME280;75669;48.038;10.158;2024-01-30T12:15:57;96491.09;;;13.46;61.75
85258;BME280;75669;48.038;10.158;2024-01-30T12:18:23;96487.06;;;13.53;61.12
85258;BME280;75669;48.038;10.158;2024-01-30T12:21:00;96483.63;;;14.01;61.02
85258;BME280;75669;48.038;10.158;2024-01-30T12:23:27;96483.63;;;14.14;60.02
85258;BME280;75669;48.038;10.158;2024-01-30T12:25:52;96478.59;;;14.12;59.25
85258;BME280;75669;48.038;10.158;2024-01-30T12:28:19;96473.66;;;13.89;60.18
85258;BME280;75669;48.038;10.158;2024-01-30T12:30:44;96473.41;;;13.58;60.93
85258;BME280;75669;48.038;10.158;2024-01-30T12:33:09;96481.38;;;13.66;60.88
85258;BME280;75669;48.038;10.158;2024-01-30T12:35:45;96480.03;;;13.73;61.10
85258;BME280;75669;48.038;10.158;2024-01-30T12:38:11;96476.00;;;14.03;60.50
85258;BME280;75669;48.038;10.158;2024-01-30T12:40:36;96480.47;;;13.99;58.99
85258;BME280;75669;48.038;10.158;2024-01-30T12:43:02;96482.50;;;13.65;60.23
85258;BME280;75669;48.038;10.158;2024-01-30T12:45:31;96487.41;;;13.51;60.48
85258;BME280;75669;48.038;10.158;2024-01-30T12:47:56;96480.47;;;13.62;59.78
85258;BME280;75669;48.038;10.158;2024-01-30T12:50:23;96473.28;;;13.42;59.60